sensor_id;sensor_type;location;lat;lon;timestamp;temperature;humidity
3705;DHT22;1868;48.918;9.438;2023-02-28T00:01:47;-1.60;97.40
3705;DHT22;1868;48.918;9.438;2023-02-28T00:04:16;-1.60;97.40
3705;DHT22;1868;48.918;9.438;2023-02-28T00:06:44;-1.70;97.40
3705;DHT22;1868;48.918;9.438;2023-02-28T00:09:14;-1.70;97.40
3705;DHT22;1868;48.918;9.438;2023-02-28T00:11:42;-1.70;97.40
3705;DHT22;1868;48.918;9.438;2023-02-28T00:14:11;-1.70;97.40
3705;DHT22;1868;48.918;9.438;2023-02-28T00:16:39;-1.60;97.40
3705;DHT22;1868;48.918;9.438;2023-02-28T00:19:07;-1.60;97.40
3705;DHT22;1868;48.918;9.438;2023-02-28T00:21:35;-1.70;97.40
3705;DHT22;1868;48.918;9.438;2023-02-28T00:24:07;-1.70;97.40
3705;DHT22;1868;48.918;9.438;2023-02-28T00:26:37;-1.70;97.40
3705;DHT22;1868;48.918;9.438;2023-02-28T00:29:05;-1.70;97.40
3705;DHT22;1868;48.918;9.438;2023-02-28T00:31:34;-1.60;97.40
3705;DHT22;1868;48.918;9.438;2023-02-28T00:34:03;-1.60;97.40
3705;DHT22;1868;48.918;9.438;2023-02-28T00:36:31;-1.60;97.40
3705;DHT22;1868;48.918;9.438;2023-02-28T00:39:03;-1.60;97.40
3705;DHT22;1868;48.918;9.438;2023-02-28T00:41:33;-1.60;97.40
3705;DHT22;1868;48.918;9.438;2023-02-28T00:44:03;-1.60;97.40
3705;DHT22;1868;48.918;9.438;2023-02-28T00:46:31;-1.60;97.40
3705;DHT22;1868;48.918;9.438;2023-02-28T00:48:59;-1.60;97.40
3705;DHT22;1868;48.918;9.438;2023-02-28T00:51:27;-1.60;97.40
3705;DHT22;1868;48.918;9.438;2023-02-28T00:53:57;-1.70;97.40
3705;DHT22;1868;48.918;9.438;2023-02-28T00:56:25;-1.60;97.40
3705;DHT22;1868;48.918;9.438;2023-02-28T00:58:53;-1.60;97.40
3705;DHT22;1868;48.918;9.438;2023-02-28T01:01:23;-1.60;97.40
3705;DHT22;1868;48.918;9.438;2023-02-28T01:03:52;-1.60;97.40
3705;DHT22;1868;48.918;9.438;2023-02-28T01:06:20;-1.70;97.40
3705;DHT22;1868;48.918;9.438;2023-02-28T01:08:49;-1.70;97.40
3705;DHT22;1868;48.918;9.438;2023-02-28T01:11:18;-1.70;97.40
3705;DHT22;1868;48.918;9.438;2023-02-28T01:13:46;-1.70;97.40
3705;DHT22;1868;48.918;9.438;2023-02-28T01:16:15;-1.70;97.40
3705;DHT22;1868;48.918;9.438;2023-02-28T01:18:46;-1.70;97.40
3705;DHT22;1868;48.918;9.438;2023-02-28T01:21:17;-1.70;97.40
3705;DHT22;1868;48.918;9.438;2023-02-28T01:23:47;-1.70;97.40
3705;DHT22;1868;48.918;9.438;2023-02-28T01:26:18;-1.70;97.40
3705;DHT22;1868;48.918;9.438;2023-02-28T01:28:48;-1.80;97.40
3705;DHT22;1868;48.918;9.438;2023-02-28T01:31:18;-1.80;97.40
3705;DHT22;1868;48.918;9.438;2023-02-28T01:33:50;-1.80;97.40
3705;DHT22;1868;48.918;9.438;2023-02-28T01:36:19;-1.80;97.40
3705;DHT22;1868;48.918;9.438;2023-02-28T01:38:49;-1.70;97.40
3705;DHT22;1868;48.918;9.438;2023-02-28T01:41:21;-1.70;97.40
3705;DHT22;1868;48.918;9.438;2023-02-28T01:43:58;-1.80;97.40
3705;DHT22;1868;48.918;9.438;2023-02-28T01:46:33;-1.80;97.40
3705;DHT22;1868;48.918;9.438;2023-02-28T01:49:07;-1.80;97.40
3705;DHT22;1868;48.918;9.438;2023-02-28T01:51:40;-1.80;97.40
3705;DHT22;1868;48.918;9.438;2023-02-28T01:54:15;-1.80;97.40
3705;DHT22;1868;48.918;9.438;2023-02-28T01:56:49;-1.80;97.40
3705;DHT22;1868;48.918;9.438;2023-02-28T01:59:23;-1.80;97.40
3705;DHT22;1868;48.918;9.438;2023-02-28T02:01:55;-1.80;97.40
3705;DHT22;1868;48.918;9.438;2023-02-28T02:04:27;-1.70;97.40
3705;DHT22;1868;48.918;9.438;2023-02-28T02:07:02;-1.80;97.40
3705;DHT22;1868;48.918;9.438;2023-02-28T02:09:31;-1.80;97.40
3705;DHT22;1868;48.918;9.438;2023-02-28T02:12:02;-1.70;97.40
3705;DHT22;1868;48.918;9.438;2023-02-28T02:14:47;-1.70;97.40
3705;DHT22;1868;48.918;9.438;2023-02-28T02:17:26;-1.70;97.40
3705;DHT22;1868;48.918;9.438;2023-02-28T02:27:03;-1.60;97.40
3705;DHT22;1868;48.918;9.438;2023-02-28T02:29:59;-1.60;97.40
3705;DHT22;1868;48.918;9.438;2023-02-28T02:36:16;-1.40;97.40
3705;DHT22;1868;48.918;9.438;2023-02-28T02:38:51;-1.40;97.40
3705;DHT22;1868;48.918;9.438;2023-02-28T02:41:26;-1.30;97.40
3705;DHT22;1868;48.918;9.438;2023-02-28T02:44:02;-1.30;97.40
3705;DHT22;1868;48.918;9.438;2023-02-28T02:46:36;-1.30;97.40
3705;DHT22;1868;48.918;9.438;2023-02-28T02:49:09;-1.30;97.40
3705;DHT22;1868;48.918;9.438;2023-02-28T02:51:41;-1.30;97.40
3705;DHT22;1868;48.918;9.438;2023-02-28T02:54:13;-1.30;97.40
3705;DHT22;1868;48.918;9.438;2023-02-28T02:56:47;-1.30;97.40
3705;DHT22;1868;48.918;9.438;2023-02-28T02:59:19;-1.30;97.40
3705;DHT22;1868;48.918;9.438;2023-02-28T03:01:53;-1.30;97.40
3705;DHT22;1868;48.918;9.438;2023-02-28T03:04:26;-1.20;97.40
3705;DHT22;1868;48.918;9.438;2023-02-28T03:06:59;-1.20;97.40
3705;DHT22;1868;48.918;9.438;2023-02-28T03:09:28;-1.30;97.40
3705;DHT22;1868;48.918;9.438;2023-02-28T03:11:56;-1.20;97.40
3705;DHT22;1868;48.918;9.438;2023-02-28T03:14:40;-1.20;97.40
3705;DHT22;1868;48.918;9.438;2023-02-28T03:17:35;-1.20;97.40
3705;DHT22;1868;48.918;9.438;2023-02-28T03:20:18;-1.20;97.40
3705;DHT22;1868;48.918;9.438;2023-02-28T03:23:04;-1.10;97.40
3705;DHT22;1868;48.918;9.438;2023-02-28T03:25:47;-1.10;97.40
3705;DHT22;1868;48.918;9.438;2023-02-28T03:28:30;-1.10;97.40
3705;DHT22;1868;48.918;9.438;2023-02-28T03:31:04;-1.00;97.40
3705;DHT22;1868;48.918;9.438;2023-02-28T03:33:39;-1.00;97.40
3705;DHT22;1868;48.918;9.438;2023-02-28T03:36:13;-1.00;97.40
3705;DHT22;1868;48.918;9.438;2023-02-28T03:38:46;-1.00;97.40
3705;DHT22;1868;48.918;9.438;2023-02-28T03:41:19;-1.00;97.40
3705;DHT22;1868;48.918;9.438;2023-02-28T03:43:53;-1.00;97.40
3705;DHT22;1868;48.918;9.438;2023-02-28T03:46:27;-0.90;97.40
3705;DHT22;1868;48.918;9.438;2023-02-28T03:49:00;-0.90;97.40
3705;DHT22;1868;48.918;9.438;2023-02-28T03:51:31;-0.90;97.40
3705;DHT22;1868;48.918;9.438;2023-02-28T03:54:06;-0.90;97.40
3705;DHT22;1868;48.918;9.438;2023-02-28T03:56:39;-0.80;97.40
3705;DHT22;1868;48.918;9.438;2023-02-28T03:59:13;-0.80;97.40
3705;DHT22;1868;48.918;9.438;2023-02-28T04:01:45;-0.80;97.40
3705;DHT22;1868;48.918;9.438;2023-02-28T04:04:16;-0.80;97.40
3705;DHT22;1868;48.918;9.438;2023-02-28T04:06:45;-0.80;97.40
3705;DHT22;1868;48.918;9.438;2023-02-28T04:09:15;-0.80;97.40
3705;DHT22;1868;48.918;9.438;2023-02-28T04:11:46;-0.80;97.40
3705;DHT22;1868;48.918;9.438;2023-02-28T04:14:19;-0.80;97.40
3705;DHT22;1868;48.918;9.438;2023-02-28T04:16:47;-0.80;97.40
3705;DHT22;1868;48.918;9.438;2023-02-28T04:19:18;-0.80;97.40
3705;DHT22;1868;48.918;9.438;2023-02-28T04:21:50;-0.70;97.40
3705;DHT22;1868;48.918;9.438;2023-02-28T04:24:21;-0.70;97.40
3705;DHT22;1868;48.918;9.438;2023-02-28T04:26:52;-0.70;97.40
3705;DHT22;1868;48.918;9.438;2023-02-28T04:29:23;-0.70;97.40
3705;DHT22;1868;48.918;9.438;2023-02-28T04:31:53;-0.60;97.40
3705;DHT22;1868;48.918;9.438;2023-02-28T04:34:22;-0.60;97.40
3705;DHT22;1868;48.918;9.438;2023-02-28T04:36:50;-0.60;97.40
3705;DHT22;1868;48.918;9.438;2023-02-28T04:39:40;-0.60;97.40
3705;DHT22;1868;48.918;9.438;2023-02-28T04:42:09;-0.60;97.40
3705;DHT22;1868;48.918;9.438;2023-02-28T04:44:38;-0.60;97.40
3705;DHT22;1868;48.918;9.438;2023-02-28T04:47:06;-0.60;97.40
3705;DHT22;1868;48.918;9.438;2023-02-28T04:49:34;-0.60;97.40
3705;DHT22;1868;48.918;9.438;2023-02-28T04:52:02;-0.50;97.40
3705;DHT22;1868;48.918;9.438;2023-02-28T04:54:31;-0.50;97.40
3705;DHT22;1868;48.918;9.438;2023-02-28T04:57:01;-0.50;97.40
3705;DHT22;1868;48.918;9.438;2023-02-28T04:59:31;-0.50;97.40
3705;DHT22;1868;48.918;9.438;2023-02-28T05:01:59;-0.50;97.40
3705;DHT22;1868;48.918;9.438;2023-02-28T05:04:33;-0.50;97.40
3705;DHT22;1868;48.918;9.438;2023-02-28T05:07:03;-0.50;97.40
3705;DHT22;1868;48.918;9.438;2023-02-28T05:09:31;-0.50;97.40
3705;DHT22;1868;48.918;9.438;2023-02-28T05:12:02;-0.40;97.40
3705;DHT22;1868;48.918;9.438;2023-02-28T05:14:31;-0.40;97.40
3705;DHT22;1868;48.918;9.438;2023-02-28T05:16:59;-0.40;97.40
3705;DHT22;1868;48.918;9.438;2023-02-28T05:19:27;-0.40;97.40
3705;DHT22;1868;48.918;9.438;2023-02-28T05:21:56;-0.40;97.40
3705;DHT22;1868;48.918;9.438;2023-02-28T05:24:25;-0.40;97.40
3705;DHT22;1868;48.918;9.438;2023-02-28T05:26:54;-0.40;97.40
3705;DHT22;1868;48.918;9.438;2023-02-28T05:29:25;-0.30;97.40
3705;DHT22;1868;48.918;9.438;2023-02-28T05:31:53;-0.40;97.40
3705;DHT22;1868;48.918;9.438;2023-02-28T05:34:22;-0.40;97.40
3705;DHT22;1868;48.918;9.438;2023-02-28T05:36:50;-0.30;97.40
3705;DHT22;1868;48.918;9.438;2023-02-28T05:39:18;-0.30;97.40
3705;DHT22;1868;48.918;9.438;2023-02-28T05:41:47;-0.30;97.40
3705;DHT22;1868;48.918;9.438;2023-02-28T05:44:16;-0.30;97.40
3705;DHT22;1868;48.918;9.438;2023-02-28T05:46:46;-0.30;97.40
3705;DHT22;1868;48.918;9.438;2023-02-28T05:49:15;-0.30;97.40
3705;DHT22;1868;48.918;9.438;2023-02-28T05:51:43;-0.30;97.40
3705;DHT22;1868;48.918;9.438;2023-02-28T05:54:12;-0.30;97.40
3705;DHT22;1868;48.918;9.438;2023-02-28T05:56:41;-0.30;97.40
3705;DHT22;1868;48.918;9.438;2023-02-28T05:59:14;-0.30;97.40
3705;DHT22;1868;48.918;9.438;2023-02-28T06:01:46;-0.30;97.40
3705;DHT22;1868;48.918;9.438;2023-02-28T06:04:17;-0.30;97.40
3705;DHT22;1868;48.918;9.438;2023-02-28T06:06:58;-0.30;97.40
3705;DHT22;1868;48.918;9.438;2023-02-28T06:09:26;-0.30;97.40
3705;DHT22;1868;48.918;9.438;2023-02-28T06:11:57;-0.30;97.40
3705;DHT22;1868;48.918;9.438;2023-02-28T06:14:26;-0.30;97.40
3705;DHT22;1868;48.918;9.438;2023-02-28T06:16:59;-0.30;97.40
3705;DHT22;1868;48.918;9.438;2023-02-28T06:19:28;-0.30;97.40
3705;DHT22;1868;48.918;9.438;2023-02-28T06:21:58;-0.30;97.40
3705;DHT22;1868;48.918;9.438;2023-02-28T06:24:26;-0.30;97.40
3705;DHT22;1868;48.918;9.438;2023-02-28T06:26:55;-0.30;97.40
3705;DHT22;1868;48.918;9.438;2023-02-28T06:29:25;-0.30;97.40
3705;DHT22;1868;48.918;9.438;2023-02-28T06:31:54;-0.30;97.40
3705;DHT22;1868;48.918;9.438;2023-02-28T06:34:24;-0.30;97.40
3705;DHT22;1868;48.918;9.438;2023-02-28T06:36:52;-0.30;97.40
3705;DHT22;1868;48.918;9.438;2023-02-28T06:39:21;-0.20;97.40
3705;DHT22;1868;48.918;9.438;2023-02-28T06:41:49;-0.20;97.40
3705;DHT22;1868;48.918;9.438;2023-02-28T06:44:22;-0.20;97.40
3705;DHT22;1868;48.918;9.438;2023-02-28T06:46:51;-0.20;97.40
3705;DHT22;1868;48.918;9.438;2023-02-28T06:49:20;-0.20;97.40
3705;DHT22;1868;48.918;9.438;2023-02-28T06:51:50;-0.20;97.40
3705;DHT22;1868;48.918;9.438;2023-02-28T06:54:18;-0.20;97.40
3705;DHT22;1868;48.918;9.438;2023-02-28T06:56:49;-0.20;97.40
3705;DHT22;1868;48.918;9.438;2023-02-28T06:59:17;-0.20;97.40
3705;DHT22;1868;48.918;9.438;2023-02-28T07:01:46;-0.10;97.40
3705;DHT22;1868;48.918;9.438;2023-02-28T07:04:14;-0.10;97.40
3705;DHT22;1868;48.918;9.438;2023-02-28T07:06:42;-0.10;97.40
3705;DHT22;1868;48.918;9.438;2023-02-28T07:09:12;-0.10;97.40
3705;DHT22;1868;48.918;9.438;2023-02-28T07:11:41;0.00;97.40
3705;DHT22;1868;48.918;9.438;2023-02-28T07:14:10;0.00;97.40
3705;DHT22;1868;48.918;9.438;2023-02-28T07:16:39;-0.10;97.40
3705;DHT22;1868;48.918;9.438;2023-02-28T07:19:07;0.00;97.40
3705;DHT22;1868;48.918;9.438;2023-02-28T07:21:35;0.00;97.40
3705;DHT22;1868;48.918;9.438;2023-02-28T07:24:04;0.10;97.40
3705;DHT22;1868;48.918;9.438;2023-02-28T07:26:34;0.10;97.40
3705;DHT22;1868;48.918;9.438;2023-02-28T07:29:04;0.10;97.40
3705;DHT22;1868;48.918;9.438;2023-02-28T07:31:32;0.10;97.40
3705;DHT22;1868;48.918;9.438;2023-02-28T07:34:01;0.20;97.40
3705;DHT22;1868;48.918;9.438;2023-02-28T07:36:31;0.20;97.40
3705;DHT22;1868;48.918;9.438;2023-02-28T07:38:59;0.30;97.40
3705;DHT22;1868;48.918;9.438;2023-02-28T07:41:27;0.30;97.40
3705;DHT22;1868;48.918;9.438;2023-02-28T07:43:58;0.40;97.40
3705;DHT22;1868;48.918;9.438;2023-02-28T07:46:27;0.40;97.40
3705;DHT22;1868;48.918;9.438;2023-02-28T07:49:03;0.50;97.40
3705;DHT22;1868;48.918;9.438;2023-02-28T07:51:32;0.60;97.40
3705;DHT22;1868;48.918;9.438;2023-02-28T07:54:00;0.60;97.40
3705;DHT22;1868;48.918;9.438;2023-02-28T07:56:28;0.60;97.40
3705;DHT22;1868;48.918;9.438;2023-02-28T07:58:58;0.70;97.40
3705;DHT22;1868;48.918;9.438;2023-02-28T08:01:28;0.80;97.40
3705;DHT22;1868;48.918;9.438;2023-02-28T08:03:57;0.80;97.40
3705;DHT22;1868;48.918;9.438;2023-02-28T08:06:25;0.80;97.40
3705;DHT22;1868;48.918;9.438;2023-02-28T08:08:54;0.80;97.40
3705;DHT22;1868;48.918;9.438;2023-02-28T08:11:24;0.90;97.40
3705;DHT22;1868;48.918;9.438;2023-02-28T08:13:54;0.90;97.40
3705;DHT22;1868;48.918;9.438;2023-02-28T08:16:24;0.90;97.40
3705;DHT22;1868;48.918;9.438;2023-02-28T08:18:52;1.00;97.40
3705;DHT22;1868;48.918;9.438;2023-02-28T08:21:21;1.20;97.40
3705;DHT22;1868;48.918;9.438;2023-02-28T08:23:51;1.30;97.40
3705;DHT22;1868;48.918;9.438;2023-02-28T08:26:20;1.50;97.40
3705;DHT22;1868;48.918;9.438;2023-02-28T08:28:49;1.90;97.40
3705;DHT22;1868;48.918;9.438;2023-02-28T08:31:18;2.30;97.40
3705;DHT22;1868;48.918;9.438;2023-02-28T08:33:48;3.00;97.40
3705;DHT22;1868;48.918;9.438;2023-02-28T08:36:19;3.60;95.40
3705;DHT22;1868;48.918;9.438;2023-02-28T08:38:47;4.40;92.60
3705;DHT22;1868;48.918;9.438;2023-02-28T08:41:16;4.90;90.90
3705;DHT22;1868;48.918;9.438;2023-02-28T08:43:45;5.40;89.90
3705;DHT22;1868;48.918;9.438;2023-02-28T08:46:14;5.60;87.70
3705;DHT22;1868;48.918;9.438;2023-02-28T08:48:43;5.70;86.40
3705;DHT22;1868;48.918;9.438;2023-02-28T08:51:15;5.60;87.10
3705;DHT22;1868;48.918;9.438;2023-02-28T08:53:48;5.70;86.20
3705;DHT22;1868;48.918;9.438;2023-02-28T08:56:17;6.50;84.70
3705;DHT22;1868;48.918;9.438;2023-02-28T08:58:48;6.60;82.50
3705;DHT22;1868;48.918;9.438;2023-02-28T09:01:18;7.20;79.90
3705;DHT22;1868;48.918;9.438;2023-02-28T09:03:50;7.20;79.10
3705;DHT22;1868;48.918;9.438;2023-02-28T09:06:22;6.80;78.60
3705;DHT22;1868;48.918;9.438;2023-02-28T09:08:51;6.90;79.90
3705;DHT22;1868;48.918;9.438;2023-02-28T09:11:20;7.80;75.80
3705;DHT22;1868;48.918;9.438;2023-02-28T09:13:49;7.60;76.30
3705;DHT22;1868;48.918;9.438;2023-02-28T09:16:17;7.10;76.70
3705;DHT22;1868;48.918;9.438;2023-02-28T09:18:46;6.90;77.40
3705;DHT22;1868;48.918;9.438;2023-02-28T09:21:16;6.50;75.90
3705;DHT22;1868;48.918;9.438;2023-02-28T09:23:48;5.70;78.70
3705;DHT22;1868;48.918;9.438;2023-02-28T09:26:20;5.80;81.00
3705;DHT22;1868;48.918;9.438;2023-02-28T09:28:50;6.00;78.40
3705;DHT22;1868;48.918;9.438;2023-02-28T09:31:21;6.70;79.10
3705;DHT22;1868;48.918;9.438;2023-02-28T09:33:53;6.90;77.80
3705;DHT22;1868;48.918;9.438;2023-02-28T09:36:25;6.70;77.40
3705;DHT22;1868;48.918;9.438;2023-02-28T09:39:12;6.50;76.50
3705;DHT22;1868;48.918;9.438;2023-02-28T09:41:43;6.30;76.70
3705;DHT22;1868;48.918;9.438;2023-02-28T09:44:22;6.10;77.40
3705;DHT22;1868;48.918;9.438;2023-02-28T09:46:57;5.90;77.80
3705;DHT22;1868;48.918;9.438;2023-02-28T09:49:34;6.20;75.90
3705;DHT22;1868;48.918;9.438;2023-02-28T09:52:09;6.50;75.00
3705;DHT22;1868;48.918;9.438;2023-02-28T09:54:41;7.10;75.90
3705;DHT22;1868;48.918;9.438;2023-02-28T09:57:18;6.70;73.20
3705;DHT22;1868;48.918;9.438;2023-02-28T10:00:07;6.90;74.30
3705;DHT22;1868;48.918;9.438;2023-02-28T10:03:00;7.00;72.60
3705;DHT22;1868;48.918;9.438;2023-02-28T10:05:36;7.20;73.50
3705;DHT22;1868;48.918;9.438;2023-02-28T10:08:13;7.00;72.60
3705;DHT22;1868;48.918;9.438;2023-02-28T10:10:45;7.60;73.70
3705;DHT22;1868;48.918;9.438;2023-02-28T10:13:21;7.70;71.50
3705;DHT22;1868;48.918;9.438;2023-02-28T10:15:55;7.70;70.40
3705;DHT22;1868;48.918;9.438;2023-02-28T10:18:29;7.10;70.50
3705;DHT22;1868;48.918;9.438;2023-02-28T10:20:59;7.90;70.40
3705;DHT22;1868;48.918;9.438;2023-02-28T10:23:32;8.50;67.90
3705;DHT22;1868;48.918;9.438;2023-02-28T10:26:11;9.30;65.50
3705;DHT22;1868;48.918;9.438;2023-02-28T10:28:43;8.90;64.80
3705;DHT22;1868;48.918;9.438;2023-02-28T10:31:15;8.80;64.80
3705;DHT22;1868;48.918;9.438;2023-02-28T10:33:46;8.80;65.10
3705;DHT22;1868;48.918;9.438;2023-02-28T10:36:16;8.40;65.70
3705;DHT22;1868;48.918;9.438;2023-02-28T10:38:48;8.30;65.30
3705;DHT22;1868;48.918;9.438;2023-02-28T10:41:28;8.60;66.60
3705;DHT22;1868;48.918;9.438;2023-02-28T10:44:17;8.90;63.30
3705;DHT22;1868;48.918;9.438;2023-02-28T10:46:48;9.80;63.80
3705;DHT22;1868;48.918;9.438;2023-02-28T10:49:20;10.80;59.60
3705;DHT22;1868;48.918;9.438;2023-02-28T10:51:52;12.20;58.70
3705;DHT22;1868;48.918;9.438;2023-02-28T10:54:30;12.70;51.70
3705;DHT22;1868;48.918;9.438;2023-02-28T10:57:18;13.80;51.70
3705;DHT22;1868;48.918;9.438;2023-02-28T10:59:51;14.00;49.70
3705;DHT22;1868;48.918;9.438;2023-02-28T11:02:38;13.70;48.70
3705;DHT22;1868;48.918;9.438;2023-02-28T11:05:30;13.00;49.30
3705;DHT22;1868;48.918;9.438;2023-02-28T11:08:05;13.20;49.60
3705;DHT22;1868;48.918;9.438;2023-02-28T11:10:38;13.30;48.50
3705;DHT22;1868;48.918;9.438;2023-02-28T11:13:17;12.40;49.30
3705;DHT22;1868;48.918;9.438;2023-02-28T11:15:51;13.20;49.30
3705;DHT22;1868;48.918;9.438;2023-02-28T11:18:27;13.50;48.40
3705;DHT22;1868;48.918;9.438;2023-02-28T11:20:59;14.10;48.40
3705;DHT22;1868;48.918;9.438;2023-02-28T11:23:31;14.60;46.20
3705;DHT22;1868;48.918;9.438;2023-02-28T11:26:04;15.10;45.80
3705;DHT22;1868;48.918;9.438;2023-02-28T11:28:39;15.70;45.00
3705;DHT22;1868;48.918;9.438;2023-02-28T11:31:17;15.70;42.60
3705;DHT22;1868;48.918;9.438;2023-02-28T11:33:50;15.90;42.60
3705;DHT22;1868;48.918;9.438;2023-02-28T11:36:20;15.50;42.30
3705;DHT22;1868;48.918;9.438;2023-02-28T11:38:53;15.00;43.20
3705;DHT22;1868;48.918;9.438;2023-02-28T11:41:44;14.30;43.30
3705;DHT22;1868;48.918;9.438;2023-02-28T11:44:32;13.90;44.60
3705;DHT22;1868;48.918;9.438;2023-02-28T11:47:09;13.20;47.60
3705;DHT22;1868;48.918;9.438;2023-02-28T11:49:48;13.50;47.20
3705;DHT22;1868;48.918;9.438;2023-02-28T11:52:34;13.50;46.50
3705;DHT22;1868;48.918;9.438;2023-02-28T11:55:16;13.50;47.20
3705;DHT22;1868;48.918;9.438;2023-02-28T11:58:13;13.60;45.90
3705;DHT22;1868;48.918;9.438;2023-02-28T12:03:51;13.70;47.00
3705;DHT22;1868;48.918;9.438;2023-02-28T12:06:38;13.70;44.70
3705;DHT22;1868;48.918;9.438;2023-02-28T12:09:36;14.20;45.50
3705;DHT22;1868;48.918;9.438;2023-02-28T12:12:45;14.50;45.80
3705;DHT22;1868;48.918;9.438;2023-02-28T12:16:03;14.90;44.10
3705;DHT22;1868;48.918;9.438;2023-02-28T12:19:12;15.90;43.00
3705;DHT22;1868;48.918;9.438;2023-02-28T12:22:10;15.20;40.30
3705;DHT22;1868;48.918;9.438;2023-02-28T12:28:11;15.60;42.30
3705;DHT22;1868;48.918;9.438;2023-02-28T12:30:46;15.40;42.30
3705;DHT22;1868;48.918;9.438;2023-02-28T12:33:24;16.20;41.50
3705;DHT22;1868;48.918;9.438;2023-02-28T12:35:57;15.90;41.20
3705;DHT22;1868;48.918;9.438;2023-02-28T12:38:29;16.30;41.50
3705;DHT22;1868;48.918;9.438;2023-02-28T12:41:04;16.10;40.10
3705;DHT22;1868;48.918;9.438;2023-02-28T12:43:38;16.50;39.70
3705;DHT22;1868;48.918;9.438;2023-02-28T12:46:12;16.70;38.50
3705;DHT22;1868;48.918;9.438;2023-02-28T12:48:46;16.70;39.20
3705;DHT22;1868;48.918;9.438;2023-02-28T12:51:17;16.80;39.10
3705;DHT22;1868;48.918;9.438;2023-02-28T12:54:03;16.80;40.50
3705;DHT22;1868;48.918;9.438;2023-02-28T12:56:42;17.00;39.20
3705;DHT22;1868;48.918;9.438;2023-02-28T12:59:20;16.80;38.90
3705;DHT22;1868;48.918;9.438;2023-02-28T13:02:02;16.80;38.50
3705;DHT22;1868;48.918;9.438;2023-02-28T13:04:57;16.60;38.20
3705;DHT22;1868;48.918;9.438;2023-02-28T13:07:46;16.50;38.90
3705;DHT22;1868;48.918;9.438;2023-02-28T13:10:42;16.50;40.00
3705;DHT22;1868;48.918;9.438;2023-02-28T13:13:16;16.30;39.10
3705;DHT22;1868;48.918;9.438;2023-02-28T13:16:05;16.80;38.80
3705;DHT22;1868;48.918;9.438;2023-02-28T13:18:37;16.40;39.40
3705;DHT22;1868;48.918;9.438;2023-02-28T13:21:10;16.20;38.90
3705;DHT22;1868;48.918;9.438;2023-02-28T13:24:00;16.00;40.10
3705;DHT22;1868;48.918;9.438;2023-02-28T13:29:40;16.10;39.50
3705;DHT22;1868;48.918;9.438;2023-02-28T13:32:34;16.40;40.80
3705;DHT22;1868;48.918;9.438;2023-02-28T13:35:36;16.00;40.60
3705;DHT22;1868;48.918;9.438;2023-02-28T13:38:16;15.80;40.00
3705;DHT22;1868;48.918;9.438;2023-02-28T13:40:49;15.90;40.90
3705;DHT22;1868;48.918;9.438;2023-02-28T13:43:18;15.70;41.20
3705;DHT22;1868;48.918;9.438;2023-02-28T13:46:12;15.60;41.80
3705;DHT22;1868;48.918;9.438;2023-02-28T13:48:41;15.40;42.00
3705;DHT22;1868;48.918;9.438;2023-02-28T13:51:35;15.30;42.60
3705;DHT22;1868;48.918;9.438;2023-02-28T13:54:20;15.30;42.00
3705;DHT22;1868;48.918;9.438;2023-02-28T13:57:05;14.90;42.00
3705;DHT22;1868;48.918;9.438;2023-02-28T13:59:49;14.80;42.90
3705;DHT22;1868;48.918;9.438;2023-02-28T14:05:39;14.80;44.10
3705;DHT22;1868;48.918;9.438;2023-02-28T14:08:13;14.70;43.60
3705;DHT22;1868;48.918;9.438;2023-02-28T14:10:47;14.80;44.00
3705;DHT22;1868;48.918;9.438;2023-02-28T14:13:39;14.80;42.30
3705;DHT22;1868;48.918;9.438;2023-02-28T14:16:13;14.50;44.70
3705;DHT22;1868;48.918;9.438;2023-02-28T14:18:49;14.60;44.10
3705;DHT22;1868;48.918;9.438;2023-02-28T14:21:24;14.50;43.60
3705;DHT22;1868;48.918;9.438;2023-02-28T14:24:34;14.00;45.00
3705;DHT22;1868;48.918;9.438;2023-02-28T14:27:35;13.80;45.80
3705;DHT22;1868;48.918;9.438;2023-02-28T14:30:26;13.80;46.40
3705;DHT22;1868;48.918;9.438;2023-02-28T14:36:18;13.90;46.20
3705;DHT22;1868;48.918;9.438;2023-02-28T14:38:51;14.10;46.10
3705;DHT22;1868;48.918;9.438;2023-02-28T14:41:26;14.30;45.20
3705;DHT22;1868;48.918;9.438;2023-02-28T14:44:00;14.40;45.20
3705;DHT22;1868;48.918;9.438;2023-02-28T14:46:35;14.10;45.90
3705;DHT22;1868;48.918;9.438;2023-02-28T14:49:05;13.80;45.90
3705;DHT22;1868;48.918;9.438;2023-02-28T14:51:35;13.50;46.20
3705;DHT22;1868;48.918;9.438;2023-02-28T14:54:03;13.30;47.20
3705;DHT22;1868;48.918;9.438;2023-02-28T14:56:35;13.50;47.20
3705;DHT22;1868;48.918;9.438;2023-02-28T14:59:26;13.40;47.30
3705;DHT22;1868;48.918;9.438;2023-02-28T15:02:20;13.30;47.30
3705;DHT22;1868;48.918;9.438;2023-02-28T15:04:54;13.10;49.00
3705;DHT22;1868;48.918;9.438;2023-02-28T15:07:24;13.10;49.00
3705;DHT22;1868;48.918;9.438;2023-02-28T15:10:17;13.20;47.90
3705;DHT22;1868;48.918;9.438;2023-02-28T15:12:52;13.30;47.90
3705;DHT22;1868;48.918;9.438;2023-02-28T15:15:27;12.80;49.10
3705;DHT22;1868;48.918;9.438;2023-02-28T15:18:18;12.60;49.40
3705;DHT22;1868;48.918;9.438;2023-02-28T15:20:53;12.70;49.40
3705;DHT22;1868;48.918;9.438;2023-02-28T15:23:22;12.70;50.00
3705;DHT22;1868;48.918;9.438;2023-02-28T15:25:51;12.70;50.50
3705;DHT22;1868;48.918;9.438;2023-02-28T15:28:22;12.40;50.50
3705;DHT22;1868;48.918;9.438;2023-02-28T15:30:57;12.30;51.30
3705;DHT22;1868;48.918;9.438;2023-02-28T15:33:28;12.10;51.00
3705;DHT22;1868;48.918;9.438;2023-02-28T15:36:06;11.90;51.70
3705;DHT22;1868;48.918;9.438;2023-02-28T15:38:38;11.70;52.30
3705;DHT22;1868;48.918;9.438;2023-02-28T15:41:22;11.40;53.70
3705;DHT22;1868;48.918;9.438;2023-02-28T15:44:13;11.10;54.20
3705;DHT22;1868;48.918;9.438;2023-02-28T15:46:59;10.70;54.30
3705;DHT22;1868;48.918;9.438;2023-02-28T15:49:33;10.20;56.90
3705;DHT22;1868;48.918;9.438;2023-02-28T15:52:13;10.00;57.40
3705;DHT22;1868;48.918;9.438;2023-02-28T15:54:44;9.50;57.70
3705;DHT22;1868;48.918;9.438;2023-02-28T15:57:17;9.40;59.60
3705;DHT22;1868;48.918;9.438;2023-02-28T15:59:51;9.30;60.50
3705;DHT22;1868;48.918;9.438;2023-02-28T16:02:30;9.00;61.80
3705;DHT22;1868;48.918;9.438;2023-02-28T16:05:19;8.70;63.50
3705;DHT22;1868;48.918;9.438;2023-02-28T16:07:55;8.30;65.10
3705;DHT22;1868;48.918;9.438;2023-02-28T16:10:25;8.00;65.90
3705;DHT22;1868;48.918;9.438;2023-02-28T16:12:55;7.70;66.40
3705;DHT22;1868;48.918;9.438;2023-02-28T16:15:26;7.50;67.90
3705;DHT22;1868;48.918;9.438;2023-02-28T16:17:57;7.30;68.50
3705;DHT22;1868;48.918;9.438;2023-02-28T16:20:28;7.10;70.40
3705;DHT22;1868;48.918;9.438;2023-02-28T16:22:58;6.80;72.20
3705;DHT22;1868;48.918;9.438;2023-02-28T16:25:34;6.60;73.20
3705;DHT22;1868;48.918;9.438;2023-02-28T16:28:03;6.30;74.60
3705;DHT22;1868;48.918;9.438;2023-02-28T16:30:32;6.10;75.90
3705;DHT22;1868;48.918;9.438;2023-02-28T16:33:02;6.00;76.10
3705;DHT22;1868;48.918;9.438;2023-02-28T16:35:30;5.80;76.90
3705;DHT22;1868;48.918;9.438;2023-02-28T16:37:59;5.70;77.10
3705;DHT22;1868;48.918;9.438;2023-02-28T16:40:30;5.60;77.60
3705;DHT22;1868;48.918;9.438;2023-02-28T16:43:05;5.50;79.30
3705;DHT22;1868;48.918;9.438;2023-02-28T16:45:35;5.40;79.70
3705;DHT22;1868;48.918;9.438;2023-02-28T16:48:07;5.20;80.00
3705;DHT22;1868;48.918;9.438;2023-02-28T16:50:36;5.10;81.20
3705;DHT22;1868;48.918;9.438;2023-02-28T16:53:05;5.10;80.40
3705;DHT22;1868;48.918;9.438;2023-02-28T16:55:34;4.90;81.40
3705;DHT22;1868;48.918;9.438;2023-02-28T16:58:03;4.80;82.80
3705;DHT22;1868;48.918;9.438;2023-02-28T17:00:32;4.80;82.30
3705;DHT22;1868;48.918;9.438;2023-02-28T17:03:00;4.60;83.00
3705;DHT22;1868;48.918;9.438;2023-02-28T17:05:37;4.50;84.30
3705;DHT22;1868;48.918;9.438;2023-02-28T17:08:06;4.40;84.30
3705;DHT22;1868;48.918;9.438;2023-02-28T17:10:34;4.20;85.60
3705;DHT22;1868;48.918;9.438;2023-02-28T17:13:03;4.20;85.80
3705;DHT22;1868;48.918;9.438;2023-02-28T17:15:41;4.10;85.80
3705;DHT22;1868;48.918;9.438;2023-02-28T17:18:13;4.00;86.40